Time;durP1;ratioP1;P1;durP2;ratioP2;P2;SDS_P1;SDS_P2;PMS_P1;PMS_P2;Temp;Humidity;BMP_temperature;BMP_pressure;BME280_temperature;BME280_humidity;BME280_pressure;Samples;Min_cycle;Max_cycle;Signal;HPM_P1;HPM_P2
2022/01/28 00:00:06;;;;;;;56.75;29.27;;;8.50;99.90;;;;;;5095527;28;20031;-75
2022/01/28 00:03:17;;;;;;;55.67;30.33;;;8.50;99.90;;;;;;5095580;28;20093;-76
2022/01/28 00:05:22;;;;;;;57.70;29.83;;;8.50;99.90;;;;;;5087737;28;20481;-75
2022/01/28 00:07:53;;;;;;;53.85;27.48;;;8.50;99.90;;;;;;5095333;28;20469;-75
2022/01/28 00:10:21;;;;;;;52.42;28.67;;;8.50;99.90;;;;;;5095290;28;20043;-75
2022/01/28 00:15:39;;;;;;;48.45;26.55;;;8.50;99.90;;;;;;5094915;28;20446;-75
2022/01/28 00:39:41;;;;;;;44.17;26.45;;;8.60;99.90;;;;;;5094738;28;20020;-75
2022/01/28 00:42:07;;;;;;;45.72;26.05;;;8.60;99.90;;;;;;5094868;28;20020;-76
2022/01/28 00:44:33;;;;;;;55.83;34.85;;;8.60;99.90;;;;;;5095092;28;20366;-76
2022/01/28 00:46:59;;;;;;;48.90;28.73;;;8.70;99.90;;;;;;5095113;28;20023;-75
2022/01/28 00:49:24;;;;;;;47.38;27.02;;;8.70;99.90;;;;;;5094479;28;20051;-75
2022/01/28 00:51:50;;;;;;;43.78;25.77;;;8.70;99.90;;;;;;5094433;28;20023;-75
2022/01/28 00:54:17;;;;;;;45.53;27.52;;;8.70;99.90;;;;;;5094512;28;20099;-77
2022/01/28 00:56:44;;;;;;;47.38;26.65;;;8.70;99.90;;;;;;5093090;28;20026;-75
2022/01/28 00:59:10;;;;;;;50.05;28.35;;;8.70;99.90;;;;;;5093006;28;20081;-75
2022/01/28 01:01:35;;;;;;;44.17;26.83;;;8.70;99.90;;;;;;5094616;28;20016;-76
2022/01/28 01:04:01;;;;;;;47.33;26.30;;;8.70;99.90;;;;;;5094475;28;20031;-75
2022/01/28 01:06:27;;;;;;;49.17;28.17;;;8.70;99.90;;;;;;5094405;28;20477;-75
2022/01/28 01:08:53;;;;;;;48.42;26.98;;;8.70;99.90;;;;;;5094408;28;20063;-75
2022/01/28 01:11:19;;;;;;;45.13;26.50;;;8.70;99.90;;;;;;5094335;28;20055;-75
2022/01/28 01:13:45;;;;;;;46.60;27.50;;;8.70;99.90;;;;;;5093977;28;20028;-75
2022/01/28 01:16:14;;;;;;;45.97;26.30;;;8.70;99.90;;;;;;5094490;28;20022;-75
2022/01/28 01:19:04;;;;;;;40.00;25.23;;;8.70;99.90;;;;;;5093976;28;20021;-76
2022/01/28 01:21:37;;;;;;;45.22;26.23;;;8.70;99.90;;;;;;5092458;28;20073;-76
2022/01/28 01:24:02;;;;;;;47.67;29.23;;;8.70;99.90;;;;;;5094202;28;20442;-76
2022/01/28 01:26:32;;;;;;;44.25;26.08;;;8.70;99.90;;;;;;5093863;28;20044;-75
2022/01/28 01:28:58;;;;;;;44.25;27.25;;;8.70;99.90;;;;;;5094072;28;20028;-75
2022/01/28 01:31:24;;;;;;;42.95;25.45;;;8.70;99.90;;;;;;5094274;28;20469;-76
2022/01/28 01:33:57;;;;;;;45.20;26.42;;;8.70;99.90;;;;;;5093919;28;20035;-76
2022/01/28 01:36:23;;;;;;;42.17;26.23;;;8.80;99.90;;;;;;5094024;28;20111;-76
2022/01/28 01:38:49;;;;;;;42.78;25.83;;;8.80;99.90;;;;;;5093133;28;20024;-75
2022/01/28 01:41:24;;;;;;;44.03;26.65;;;8.80;99.90;;;;;;5093598;28;20050;-75
2022/01/28 01:44:02;;;;;;;39.95;26.25;;;8.80;99.90;;;;;;5093603;28;20027;-75
2022/01/28 01:52:04;;;;;;;39.20;25.58;;;8.80;99.90;;;;;;5093764;28;20027;-76
2022/01/28 01:54:38;;;;;;;40.72;24.45;;;8.80;99.90;;;;;;5093859;28;20021;-75
2022/01/28 01:57:06;;;;;;;44.53;27.25;;;8.80;99.90;;;;;;5093435;28;20024;-75
2022/01/28 01:59:32;;;;;;;45.80;30.90;;;8.80;99.90;;;;;;5093390;28;20020;-77
2022/01/28 02:01:57;;;;;;;41.25;27.88;;;8.80;99.90;;;;;;5093124;28;20054;-76
2022/01/28 02:04:23;;;;;;;41.53;25.15;;;8.80;99.90;;;;;;5093330;28;20396;-75
2022/01/28 02:06:50;;;;;;;37.10;25.20;;;8.80;99.90;;;;;;5093303;28;20445;-75
2022/01/28 02:09:16;;;;;;;35.05;22.40;;;8.80;99.90;;;;;;5093284;28;20393;-76
2022/01/28 02:11:42;;;;;;;39.80;25.05;;;8.80;99.90;;;;;;5093207;28;20032;-75
2022/01/28 02:14:08;;;;;;;40.08;24.20;;;8.80;99.90;;;;;;5093114;28;20029;-76
2022/01/28 02:16:34;;;;;;;40.97;24.88;;;8.80;99.90;;;;;;5093193;28;20028;-74
2022/01/28 02:19:00;;;;;;;38.78;25.05;;;8.80;99.90;;;;;;5093199;28;20016;-75
2022/01/28 02:21:26;;;;;;;40.25;24.60;;;8.80;99.90;;;;;;5093137;28;20077;-75
2022/01/28 02:23:58;;;;;;;41.75;26.98;;;8.70;99.90;;;;;;5093150;28;20017;-76
2022/01/28 02:26:24;;;;;;;43.55;25.52;;;8.80;99.90;;;;;;5091590;28;20118;-76
2022/01/28 02:28:56;;;;;;;38.92;24.65;;;8.80;99.90;;;;;;5093082;28;20497;-75
2022/01/28 02:31:25;;;;;;;39.70;25.35;;;8.80;99.90;;;;;;5093144;28;20035;-77
2022/01/28 02:33:55;;;;;;;40.83;24.67;;;8.90;99.90;;;;;;5093004;28;20066;-77
2022/01/28 02:36:20;;;;;;;46.67;27.98;;;8.90;99.90;;;;;;5093023;28;20016;-75
2022/01/28 02:38:46;;;;;;;41.67;25.98;;;8.90;99.90;;;;;;5093017;28;20012;-77
2022/01/28 02:41:12;;;;;;;40.67;28.50;;;8.80;99.90;;;;;;5093492;28;20072;-75
2022/01/28 02:46:10;;;;;;;40.65;27.48;;;8.90;99.90;;;;;;5093139;28;20032;-75
2022/01/28 02:48:39;;;;;;;43.55;25.88;;;8.90;99.90;;;;;;5091625;28;20032;-75
2022/01/28 02:56:15;;;;;;;39.70;22.77;;;8.90;99.90;;;;;;5096722;28;20028;-75
2022/01/28 02:58:42;;;;;;;38.58;25.33;;;8.90;99.90;;;;;;5095143;28;20032;-75
2022/01/28 03:01:08;;;;;;;39.50;25.02;;;8.90;99.90;;;;;;5096612;28;20020;-75
2022/01/28 03:03:34;;;;;;;37.53;24.20;;;8.90;99.90;;;;;;5096154;28;20048;-76
2022/01/28 03:05:59;;;;;;;37.35;23.15;;;9.00;99.90;;;;;;5096553;28;20031;-75
2022/01/28 03:08:28;;;;;;;40.58;26.00;;;9.00;99.90;;;;;;5096421;28;20020;-75
2022/01/28 03:16:11;;;;;;;41.33;25.92;;;9.00;99.90;;;;;;5096629;28;20109;-76
2022/01/28 03:18:56;;;;;;;52.78;33.58;;;9.00;99.90;;;;;;5094766;28;20020;-75
2022/01/28 03:23:58;;;;;;;42.38;27.70;;;9.00;99.90;;;;;;5095854;28;20452;-75
2022/01/28 03:26:26;;;;;;;43.17;25.38;;;9.00;99.90;;;;;;5096139;28;20024;-75
2022/01/28 03:28:51;;;;;;;41.17;24.95;;;9.00;99.90;;;;;;5096349;28;20069;-75
2022/01/28 03:31:17;;;;;;;36.50;22.58;;;9.00;99.90;;;;;;5096035;28;20393;-76
2022/01/28 03:33:43;;;;;;;41.13;23.40;;;9.10;99.90;;;;;;5095895;28;20073;-76
2022/01/28 03:36:10;;;;;;;37.58;23.52;;;9.10;99.90;;;;;;5095916;28;20540;-75
2022/01/28 03:38:38;;;;;;;42.38;25.67;;;9.00;99.90;;;;;;5096447;28;20012;-76
2022/01/28 03:41:05;;;;;;;44.67;25.55;;;9.00;99.90;;;;;;5094534;28;20473;-76
2022/01/28 03:43:31;;;;;;;45.72;26.65;;;9.00;99.90;;;;;;5095806;28;20024;-76
2022/01/28 03:45:56;;;;;;;36.35;22.75;;;9.00;99.90;;;;;;5095787;28;20024;-77
2022/01/28 03:48:22;;;;;;;38.17;23.15;;;9.00;99.90;;;;;;5095626;28;20031;-75
2022/01/28 03:50:51;;;;;;;44.92;26.02;;;9.10;99.90;;;;;;5096171;28;20028;-76
2022/01/28 03:53:17;;;;;;;44.72;25.95;;;9.10;99.90;;;;;;5095524;28;20068;-76
2022/01/28 03:55:42;;;;;;;41.28;25.80;;;9.00;99.90;;;;;;5095502;28;20031;-76
2022/01/28 03:58:08;;;;;;;41.88;24.17;;;9.00;99.90;;;;;;5095782;28;20016;-76
2022/01/28 04:00:35;;;;;;;42.88;24.30;;;9.00;99.90;;;;;;5095488;28;20093;-76
2022/01/28 04:03:24;;;;;;;39.50;23.42;;;9.00;99.90;;;;;;5094746;28;20048;-76
2022/01/28 04:13:55;;;;;;;38.53;23.38;;;9.10;99.90;;;;;;5095146;28;20038;-75
2022/01/28 04:17:17;;;;;;;39.35;22.63;;;9.10;99.90;;;;;;5093882;28;20507;-76
2022/01/28 04:19:15;;;;;;;38.42;22.67;;;9.00;99.90;;;;;;5094821;28;20020;-75
2022/01/28 04:21:41;;;;;;;35.38;21.30;;;9.00;99.90;;;;;;5095044;28;20081;-75
2022/01/28 04:24:06;;;;;;;35.10;22.92;;;9.00;99.90;;;;;;5094968;28;20036;-75
2022/01/28 04:26:32;;;;;;;40.28;23.40;;;9.00;99.90;;;;;;5094921;28;20028;-74
2022/01/28 04:28:57;;;;;;;38.50;23.52;;;9.00;99.90;;;;;;5094884;28;20107;-75
2022/01/28 04:31:23;;;;;;;36.92;25.17;;;9.10;99.90;;;;;;5095112;28;20120;-76
2022/01/28 04:33:49;;;;;;;38.90;22.90;;;9.10;99.90;;;;;;5094952;28;20389;-75
2022/01/28 04:36:17;;;;;;;43.63;25.10;;;9.00;99.90;;;;;;5094787;28;20027;-75
2022/01/28 04:38:59;;;;;;;45.15;26.35;;;9.00;99.90;;;;;;5094765;28;20020;-76
2022/01/28 04:41:58;;;;;;;38.40;24.20;;;9.00;99.90;;;;;;5093165;28;20024;-75
2022/01/28 04:44:18;;;;;;;39.38;23.38;;;9.00;99.90;;;;;;5094224;28;20040;-75
2022/01/28 04:46:53;;;;;;;37.17;23.25;;;9.10;99.90;;;;;;5093070;28;20057;-76
2022/01/28 04:49:27;;;;;;;38.25;23.33;;;9.00;99.90;;;;;;5094804;28;20028;-75
2022/01/28 04:57:34;;;;;;;39.15;21.98;;;9.10;99.90;;;;;;5094714;28;20027;-76
2022/01/28 05:03:04;;;;;;;35.35;20.90;;;9.00;99.90;;;;;;5094126;28;20134;-75
2022/01/28 05:26:27;;;;;;;35.53;22.20;;;9.10;99.90;;;;;;5094159;28;20055;-76
2022/01/28 05:28:53;;;;;;;36.83;21.42;;;9.00;99.90;;;;;;5092310;28;20481;-76
2022/01/28 05:31:20;;;;;;;38.88;23.50;;;9.00;99.90;;;;;;5093785;28;20030;-76
2022/01/28 05:33:46;;;;;;;35.17;21.75;;;9.10;99.90;;;;;;5093554;28;20073;-76
2022/01/28 05:36:12;;;;;;;40.40;24.05;;;9.10;99.90;;;;;;5093729;28;20453;-75
2022/01/28 05:38:38;;;;;;;36.13;21.70;;;9.10;99.90;;;;;;5093678;28;20052;-75
2022/01/28 05:41:03;;;;;;;37.60;22.73;;;9.10;99.90;;;;;;5093614;28;20032;-75
2022/01/28 05:43:29;;;;;;;34.80;20.95;;;9.10;99.90;;;;;;5093629;28;20395;-76
2022/01/28 05:45:55;;;;;;;37.55;23.30;;;9.10;99.90;;;;;;5093563;28;20024;-75
2022/01/28 05:48:21;;;;;;;34.30;21.58;;;9.10;99.90;;;;;;5093538;28;20085;-75
2022/01/28 05:50:48;;;;;;;37.70;23.05;;;9.00;99.90;;;;;;5092238;28;20512;-76
2022/01/28 05:53:13;;;;;;;37.95;22.65;;;9.00;99.90;;;;;;5093353;28;20055;-75
2022/01/28 05:55:39;;;;;;;36.30;21.38;;;9.00;99.90;;;;;;5093390;28;20044;-76
2022/01/28 05:58:05;;;;;;;40.25;24.75;;;9.00;99.90;;;;;;5093394;28;20047;-75
2022/01/28 06:00:31;;;;;;;36.83;22.23;;;9.00;99.90;;;;;;5093322;28;20393;-75
2022/01/28 06:02:57;;;;;;;33.40;21.27;;;9.00;99.90;;;;;;5093292;28;20059;-75
2022/01/28 06:05:29;;;;;;;38.60;22.05;;;9.00;99.90;;;;;;5093381;28;20058;-75
2022/01/28 06:07:55;;;;;;;33.33;20.65;;;9.00;99.90;;;;;;5093883;28;20024;-76
2022/01/28 06:10:20;;;;;;;32.83;21.75;;;9.00;99.90;;;;;;5093282;28;20100;-75
2022/01/28 06:12:50;;;;;;;35.17;22.08;;;9.00;99.90;;;;;;5091842;28;20522;-75
2022/01/28 06:15:16;;;;;;;35.05;23.30;;;8.90;99.90;;;;;;5093185;28;20016;-75
2022/01/28 06:17:42;;;;;;;35.92;23.20;;;9.00;99.90;;;;;;5093154;28;20054;-76
2022/01/28 06:20:10;;;;;;;35.22;23.00;;;9.00;99.90;;;;;;5093176;28;20500;-75
2022/01/28 06:22:40;;;;;;;38.38;23.00;;;9.00;99.90;;;;;;5093161;28;20489;-76
2022/01/28 06:25:07;;;;;;;33.70;21.80;;;9.00;99.90;;;;;;5093815;28;20016;-76
2022/01/28 06:27:33;;;;;;;42.28;25.45;;;9.00;99.90;;;;;;5095955;28;20132;-76
2022/01/28 06:29:59;;;;;;;37.90;22.85;;;9.00;99.90;;;;;;5097517;28;20474;-76
2022/01/28 06:32:24;;;;;;;40.95;24.85;;;9.00;99.90;;;;;;5097066;28;20028;-76
2022/01/28 06:34:50;;;;;;;40.30;25.98;;;9.00;99.90;;;;;;5097364;28;20016;-75
2022/01/28 06:37:16;;;;;;;49.65;29.27;;;9.00;99.90;;;;;;5097642;28;20050;-76
2022/01/28 06:39:41;;;;;;;45.30;27.83;;;8.90;99.90;;;;;;5096989;28;20016;-76
2022/01/28 06:42:07;;;;;;;45.70;27.63;;;8.90;99.90;;;;;;5097252;28;20028;-75
2022/01/28 06:44:33;;;;;;;37.63;22.65;;;8.90;99.90;;;;;;5096949;28;20050;-76
2022/01/28 06:46:59;;;;;;;34.58;21.33;;;8.90;99.90;;;;;;5096806;28;20028;-75
2022/01/28 06:49:24;;;;;;;37.13;23.65;;;8.90;99.90;;;;;;5096820;28;20028;-74
2022/01/28 06:51:50;;;;;;;34.53;22.10;;;8.90;99.90;;;;;;5097068;28;20031;-75
2022/01/28 06:54:16;;;;;;;34.47;21.73;;;8.90;99.90;;;;;;5095302;28;20049;-76
2022/01/28 06:56:41;;;;;;;32.15;20.45;;;8.90;99.90;;;;;;5096776;28;20036;-76
2022/01/28 06:59:07;;;;;;;32.10;21.45;;;8.90;99.90;;;;;;5095379;28;20020;-75
2022/01/28 07:01:33;;;;;;;64.88;43.25;;;8.80;99.90;;;;;;5096493;28;20024;-76
2022/01/28 07:04:00;;;;;;;71.20;46.78;;;8.80;99.90;;;;;;5096609;28;20028;-75
2022/01/28 07:06:26;;;;;;;33.70;22.73;;;8.80;99.90;;;;;;5096813;28;20020;-75
2022/01/28 07:08:52;;;;;;;32.50;19.77;;;8.80;99.90;;;;;;5096778;28;20550;-76
2022/01/28 07:11:18;;;;;;;32.67;21.60;;;8.80;99.90;;;;;;5096450;28;20053;-75
2022/01/28 07:13:44;;;;;;;38.40;21.77;;;8.90;99.90;;;;;;5096600;28;20117;-76
2022/01/28 07:16:09;;;;;;;35.67;24.88;;;8.80;99.90;;;;;;5095087;28;20105;-75
2022/01/28 07:18:35;;;;;;;35.15;23.08;;;8.80;99.90;;;;;;5096544;28;20028;-75
2022/01/28 07:21:01;;;;;;;36.38;24.75;;;8.70;99.90;;;;;;5096239;28;20112;-74
2022/01/28 07:23:27;;;;;;;28.15;19.77;;;8.70;99.90;;;;;;5096157;28;20024;-75
2022/01/28 07:25:53;;;;;;;30.20;20.08;;;8.70;99.90;;;;;;5094909;28;20016;-75
2022/01/28 07:28:22;;;;;;;29.60;20.67;;;8.80;99.90;;;;;;5096397;28;20085;-76
2022/01/28 07:30:47;;;;;;;29.48;20.20;;;8.80;99.90;;;;;;5096063;28;20477;-75
2022/01/28 07:33:13;;;;;;;27.95;19.95;;;8.80;99.90;;;;;;5096186;28;20107;-76
2022/01/28 07:35:39;;;;;;;27.00;17.73;;;8.80;99.90;;;;;;5096266;28;20012;-74
2022/01/28 07:38:04;;;;;;;26.10;17.55;;;8.80;99.90;;;;;;5095053;28;20370;-74
2022/01/28 07:40:30;;;;;;;25.27;17.75;;;8.80;99.90;;;;;;5094598;28;20020;-76
2022/01/28 07:42:56;;;;;;;23.77;17.15;;;8.80;99.90;;;;;;5096087;28;20454;-74
2022/01/28 07:45:22;;;;;;;22.90;15.70;;;8.80;99.90;;;;;;5095775;28;20028;-75
2022/01/28 07:47:48;;;;;;;24.30;16.02;;;8.80;99.90;;;;;;5095748;28;20016;-75
2022/01/28 07:50:15;;;;;;;28.20;18.42;;;8.70;99.90;;;;;;5095720;28;20016;-75
2022/01/28 07:52:41;;;;;;;22.13;15.55;;;8.70;99.90;;;;;;5095594;28;20063;-76
2022/01/28 07:55:10;;;;;;;19.63;14.38;;;8.70;99.90;;;;;;5095484;28;20044;-75
2022/01/28 07:57:36;;;;;;;23.92;15.18;;;8.70;99.90;;;;;;5095556;28;20481;-75
2022/01/28 08:00:03;;;;;;;28.15;16.10;;;8.70;99.90;;;;;;5094201;28;20020;-76
2022/01/28 08:02:28;;;;;;;20.23;14.40;;;8.70;99.90;;;;;;5095609;28;20050;-74
2022/01/28 08:04:54;;;;;;;18.40;12.65;;;8.70;99.90;;;;;;5095208;28;20023;-75
2022/01/28 08:07:22;;;;;;;21.55;12.80;;;8.70;99.90;;;;;;5095649;28;20474;-75
2022/01/28 08:09:47;;;;;;;18.10;11.55;;;8.70;99.90;;;;;;5095368;28;20012;-76
2022/01/28 08:12:13;;;;;;;13.85;10.32;;;8.70;99.90;;;;;;5095232;28;20046;-74
2022/01/28 08:14:39;;;;;;;16.60;10.05;;;8.70;99.90;;;;;;5094100;28;20031;-76
2022/01/28 08:17:04;;;;;;;14.20;9.85;;;8.80;99.90;;;;;;5095142;28;20099;-76
2022/01/28 08:19:30;;;;;;;15.80;10.52;;;8.70;99.90;;;;;;5095118;28;20047;-75
2022/01/28 08:21:56;;;;;;;22.98;10.02;;;8.70;99.90;;;;;;5095067;28;20398;-76
2022/01/28 08:24:21;;;;;;;15.00;9.65;;;8.80;99.90;;;;;;5094991;28;20020;-75
2022/01/28 08:26:47;;;;;;;15.70;9.60;;;8.70;99.90;;;;;;5095238;28;20035;-75
2022/01/28 08:29:13;;;;;;;19.80;11.02;;;8.80;99.90;;;;;;5095189;28;20024;-75
2022/01/28 08:31:39;;;;;;;20.63;12.88;;;8.70;99.90;;;;;;5094779;28;20409;-75
2022/01/28 08:34:04;;;;;;;17.90;11.75;;;8.70;99.90;;;;;;5094982;28;20389;-76
2022/01/28 08:36:30;;;;;;;15.88;10.95;;;8.80;99.90;;;;;;5095068;28;20023;-75
2022/01/28 08:38:56;;;;;;;22.83;16.60;;;8.80;99.90;;;;;;5094733;28;20104;-75
2022/01/28 08:41:23;;;;;;;23.40;13.18;;;8.90;99.90;;;;;;5094753;28;20436;-76
2022/01/28 08:43:49;;;;;;;15.90;11.00;;;8.80;99.90;;;;;;5094623;28;20024;-76
2022/01/28 08:46:15;;;;;;;24.73;11.85;;;8.80;99.90;;;;;;5094582;28;20036;-76
2022/01/28 08:48:41;;;;;;;18.48;10.43;;;8.90;99.90;;;;;;5094575;28;20023;-76
2022/01/28 08:51:07;;;;;;;24.20;10.40;;;8.90;99.90;;;;;;5094804;28;20045;-76
2022/01/28 08:53:33;;;;;;;16.38;10.10;;;8.90;99.90;;;;;;5094334;28;20478;-78
2022/01/28 08:55:59;;;;;;;14.65;9.45;;;8.90;99.90;;;;;;5094394;28;20034;-81
2022/01/28 08:58:25;;;;;;;15.90;9.30;;;9.00;99.90;;;;;;5094354;28;20020;-79
2022/01/28 09:00:53;;;;;;;15.73;10.98;;;9.10;99.90;;;;;;5094334;28;20024;-80
2022/01/28 09:03:20;;;;;;;25.33;12.10;;;9.10;99.90;;;;;;5094048;28;20044;-79
2022/01/28 09:05:46;;;;;;;14.85;9.50;;;9.20;99.90;;;;;;5092909;28;20456;-84
2022/01/28 09:08:12;;;;;;;15.02;11.07;;;9.20;99.90;;;;;;5094170;28;20031;-82
2022/01/28 09:10:43;;;;;;;14.75;9.90;;;9.20;99.90;;;;;;5094134;28;20378;-77
2022/01/28 09:13:21;;;;;;;17.30;9.68;;;9.30;99.90;;;;;;5094071;28;20417;-78
2022/01/28 09:15:47;;;;;;;15.90;9.57;;;9.30;99.90;;;;;;5094058;28;20029;-79
2022/01/28 09:18:13;;;;;;;25.33;11.63;;;9.20;99.90;;;;;;5094029;28;20022;-79
2022/01/28 09:20:40;;;;;;;22.33;13.35;;;9.20;99.90;;;;;;5094008;28;20020;-77
2022/01/28 09:23:06;;;;;;;20.17;14.32;;;9.10;99.90;;;;;;5093921;28;20039;-79
2022/01/28 09:25:34;;;;;;;20.65;13.35;;;9.00;99.90;;;;;;5093941;28;20054;-77
2022/01/28 09:28:00;;;;;;;22.63;15.07;;;9.10;99.90;;;;;;5093844;28;20016;-77
2022/01/28 09:30:26;;;;;;;26.05;17.00;;;9.10;99.90;;;;;;5093801;28;20046;-76
2022/01/28 09:32:52;;;;;;;34.45;21.58;;;9.10;99.90;;;;;;5093683;28;20490;-77
2022/01/28 09:35:18;;;;;;;35.65;21.38;;;9.10;99.90;;;;;;5093695;28;20024;-76
2022/01/28 09:37:44;;;;;;;35.42;21.58;;;9.20;99.90;;;;;;5093402;28;20035;-77
2022/01/28 09:40:10;;;;;;;34.63;21.98;;;9.20;99.90;;;;;;5093638;28;20107;-77
2022/01/28 09:42:41;;;;;;;33.00;20.42;;;9.30;99.90;;;;;;5093571;28;20537;-77
2022/01/28 09:45:09;;;;;;;32.28;21.40;;;9.30;99.90;;;;;;5093664;28;20048;-78
2022/01/28 09:47:38;;;;;;;38.28;23.30;;;9.40;99.90;;;;;;5093547;28;20024;-78
2022/01/28 09:50:05;;;;;;;37.22;23.77;;;9.40;99.90;;;;;;5093489;28;20028;-78
2022/01/28 09:52:32;;;;;;;34.08;21.10;;;9.40;99.90;;;;;;5092021;28;20501;-77
2022/01/28 09:54:58;;;;;;;36.35;21.75;;;9.50;99.90;;;;;;5093424;28;20371;-76
2022/01/28 09:57:23;;;;;;;32.58;20.70;;;9.50;99.90;;;;;;5093374;28;20031;-77
2022/01/28 09:59:49;;;;;;;35.45;21.95;;;9.60;99.90;;;;;;5092929;28;20028;-76
2022/01/28 10:02:15;;;;;;;34.85;22.45;;;9.60;99.90;;;;;;5093210;28;20044;-77
2022/01/28 10:04:41;;;;;;;37.47;23.98;;;9.60;99.90;;;;;;5093693;28;20035;-76
2022/01/28 10:07:12;;;;;;;34.88;23.33;;;9.60;99.90;;;;;;5093305;28;20020;-76
2022/01/28 10:09:54;;;;;;;33.50;21.58;;;9.60;99.90;;;;;;5093297;28;20024;-76
2022/01/28 10:12:27;;;;;;;35.13;21.00;;;9.70;99.90;;;;;;5093882;28;20076;-77
2022/01/28 10:15:28;;;;;;;32.33;21.15;;;9.70;99.90;;;;;;5093563;28;20504;-76
2022/01/28 10:18:00;;;;;;;26.63;18.10;;;9.70;99.90;;;;;;5093560;28;20537;-76
2022/01/28 10:20:27;;;;;;;22.63;16.27;;;9.70;99.90;;;;;;5093213;28;20031;-77
2022/01/28 10:23:01;;;;;;;16.55;12.38;;;9.70;99.90;;;;;;5093179;28;20024;-77
2022/01/28 10:25:34;;;;;;;16.60;12.93;;;9.70;99.90;;;;;;5093165;28;20073;-76
2022/01/28 10:28:07;;;;;;;16.58;13.05;;;9.80;99.90;;;;;;5093734;28;20036;-77
2022/01/28 10:30:38;;;;;;;15.77;12.10;;;9.80;99.90;;;;;;5093723;28;20026;-77
2022/01/28 10:33:16;;;;;;;19.83;11.45;;;9.90;99.90;;;;;;5093020;28;20052;-76
2022/01/28 10:35:49;;;;;;;15.10;10.60;;;9.90;99.90;;;;;;5093025;28;20054;-75
2022/01/28 10:38:35;;;;;;;14.57;10.90;;;9.90;99.90;;;;;;5093017;28;20073;-77
2022/01/28 10:41:16;;;;;;;15.77;12.57;;;10.00;99.90;;;;;;5093377;28;20016;-76
2022/01/28 10:43:46;;;;;;;16.27;11.85;;;10.10;99.90;;;;;;5093362;28;20028;-77
2022/01/28 10:46:12;;;;;;;12.53;9.00;;;10.20;99.90;;;;;;5092990;28;20020;-77
2022/01/28 10:48:51;;;;;;;13.68;8.90;;;10.20;99.90;;;;;;5092919;28;20016;-78
2022/01/28 10:51:22;;;;;;;12.48;8.27;;;10.20;99.90;;;;;;5093426;28;20419;-77
2022/01/28 10:54:22;;;;;;;11.60;7.13;;;10.30;99.90;;;;;;5092961;28;20016;-77
2022/01/28 10:56:50;;;;;;;10.40;7.80;;;10.40;99.90;;;;;;5030951;28;20041;-76
2022/01/28 10:59:20;;;;;;;11.65;7.47;;;10.40;99.90;;;;;;5080573;28;20103;-77
2022/01/28 11:01:46;;;;;;;19.55;13.25;;;10.40;99.90;;;;;;5092912;28;20106;-76
2022/01/28 11:04:14;;;;;;;26.67;17.50;;;10.40;99.90;;;;;;5092894;28;20031;-77
2022/01/28 11:06:41;;;;;;;27.90;16.92;;;10.30;99.90;;;;;;5092730;28;20073;-75
2022/01/28 11:09:12;;;;;;;21.38;14.93;;;10.30;99.90;;;;;;5092765;28;20024;-77
2022/01/28 11:11:38;;;;;;;20.13;13.63;;;10.30;99.90;;;;;;5092743;28;20134;-77
2022/01/28 11:14:04;;;;;;;15.85;11.18;;;10.40;99.90;;;;;;5095921;28;20549;-76
2022/01/28 11:16:31;;;;;;;15.65;10.95;;;10.40;99.90;;;;;;5096425;28;20016;-75
2022/01/28 11:18:57;;;;;;;14.60;10.27;;;10.30;99.90;;;;;;5096317;28;20105;-76
2022/01/28 11:21:38;;;;;;;15.20;10.48;;;10.30;99.90;;;;;;5096307;28;20493;-77
2022/01/28 11:24:37;;;;;;;13.65;10.15;;;10.30;99.90;;;;;;5096292;28;20066;-78
2022/01/28 11:27:25;;;;;;;14.80;10.20;;;10.40;99.90;;;;;;5094624;28;20090;-77
2022/01/28 11:30:11;;;;;;;13.73;8.95;;;10.40;99.90;;;;;;5096395;28;20039;-77
2022/01/28 11:33:00;;;;;;;13.75;10.02;;;10.50;99.90;;;;;;5096140;28;20032;-76
2022/01/28 11:35:27;;;;;;;12.88;8.63;;;10.60;99.90;;;;;;5096617;28;20089;-77
2022/01/28 11:37:56;;;;;;;12.40;8.50;;;10.70;99.90;;;;;;5095930;28;20016;-75
2022/01/28 11:40:23;;;;;;;11.23;7.63;;;10.70;99.90;;;;;;5094640;28;20031;-77
2022/01/28 11:42:49;;;;;;;10.93;7.40;;;10.80;99.90;;;;;;5094271;28;20024;-76
2022/01/28 11:45:15;;;;;;;8.70;6.28;;;10.90;99.90;;;;;;5095798;28;20413;-76
2022/01/28 11:47:53;;;;;;;10.10;6.85;;;10.90;99.90;;;;;;5096069;28;20016;-78
2022/01/28 11:50:24;;;;;;;6.63;4.40;;;10.90;99.90;;;;;;5096012;28;20026;-77
2022/01/28 11:52:56;;;;;;;6.15;3.78;;;10.90;99.90;;;;;;5095698;28;20024;-77
2022/01/28 11:55:23;;;;;;;5.38;3.38;;;11.00;99.90;;;;;;5095863;28;20078;-77
2022/01/28 11:58:08;;;;;;;6.53;3.50;;;11.00;99.90;;;;;;5095614;28;20020;-76
2022/01/28 12:00:47;;;;;;;7.82;4.72;;;11.10;99.90;;;;;;5096116;28;20095;-76
2022/01/28 12:03:28;;;;;;;3.90;2.33;;;11.10;99.90;;;;;;5095300;28;20043;-76
2022/01/28 12:05:58;;;;;;;5.07;2.78;;;11.20;99.90;;;;;;5093854;28;20490;-77
2022/01/28 12:08:31;;;;;;;2.65;1.85;;;11.30;99.90;;;;;;5095653;28;20095;-76
2022/01/28 12:11:00;;;;;;;4.20;2.60;;;11.30;99.90;;;;;;5094051;28;20032;-78
2022/01/28 12:14:04;;;;;;;6.47;3.70;;;11.40;99.90;;;;;;5093920;28;20024;-77
2022/01/28 12:16:35;;;;;;;5.45;3.47;;;11.60;99.90;;;;;;5095839;28;20047;-78
2022/01/28 12:19:02;;;;;;;8.23;3.70;;;11.50;99.90;;;;;;5095487;28;20013;-75
2022/01/28 12:21:34;;;;;;;7.85;5.03;;;11.50;99.90;;;;;;5095393;28;20085;-77
2022/01/28 12:24:18;;;;;;;5.03;3.13;;;11.50;99.90;;;;;;5094718;28;20016;-77
2022/01/28 12:26:58;;;;;;;4.72;2.80;;;11.40;99.90;;;;;;5095318;28;20478;-76
2022/01/28 12:29:35;;;;;;;4.75;2.53;;;11.30;99.90;;;;;;5094955;28;20538;-77
2022/01/28 12:32:03;;;;;;;3.05;2.10;;;11.20;99.90;;;;;;5095535;28;20031;-77
2022/01/28 12:34:29;;;;;;;2.33;2.00;;;11.30;99.90;;;;;;5094825;28;20480;-77
2022/01/28 12:36:57;;;;;;;3.33;2.17;;;11.30;99.90;;;;;;5094846;28;20032;-77
2022/01/28 12:39:38;;;;;;;4.43;2.83;;;11.30;99.90;;;;;;5094802;28;20366;-77
2022/01/28 12:44:32;;;;;;;3.70;2.00;;;11.40;99.90;;;;;;5095185;28;20114;-78
2022/01/28 12:47:09;;;;;;;5.75;3.25;;;11.40;99.90;;;;;;5094895;28;20023;-76
2022/01/28 12:49:38;;;;;;;2.63;2.10;;;11.40;99.90;;;;;;5094619;28;20099;-78
2022/01/28 12:52:06;;;;;;;2.53;2.00;;;11.50;99.90;;;;;;5094578;28;20028;-76
2022/01/28 12:54:42;;;;;;;2.58;2.03;;;11.50;99.90;;;;;;5094334;28;20102;-78
2022/01/28 12:57:12;;;;;;;3.15;1.60;;;11.60;99.90;;;;;;5095019;28;20099;-76
2022/01/28 12:59:40;;;;;;;3.65;2.00;;;11.60;99.90;;;;;;5092832;28;20397;-78
2022/01/28 13:02:06;;;;;;;2.72;2.00;;;11.60;99.90;;;;;;5094142;28;20051;-77
2022/01/28 13:09:56;;;;;;;4.68;2.80;;;11.60;99.90;;;;;;5094455;28;20035;-76
2022/01/28 13:12:30;;;;;;;4.00;2.65;;;11.50;99.90;;;;;;5094168;28;20409;-76
2022/01/28 13:15:07;;;;;;;4.70;2.90;;;11.60;99.90;;;;;;5094017;28;20035;-78
2022/01/28 13:17:33;;;;;;;4.30;2.85;;;11.60;99.90;;;;;;5094022;28;20413;-76
2022/01/28 13:20:03;;;;;;;5.05;3.28;;;11.60;99.90;;;;;;5094006;28;20012;-76
2022/01/28 13:22:31;;;;;;;7.25;4.05;;;11.50;99.90;;;;;;5093926;28;20027;-77
2022/01/28 13:24:58;;;;;;;7.53;4.30;;;11.50;99.90;;;;;;5093921;28;20074;-77
2022/01/28 13:27:50;;;;;;;6.43;3.92;;;11.50;99.90;;;;;;5094149;28;20028;-76
2022/01/28 13:30:18;;;;;;;6.45;4.15;;;11.60;99.90;;;;;;5094142;28;20028;-76
2022/01/28 13:32:49;;;;;;;7.20;4.75;;;11.60;99.90;;;;;;5092218;28;20024;-78
2022/01/28 13:35:16;;;;;;;8.68;5.30;;;11.60;99.90;;;;;;5093675;28;20024;-76
2022/01/28 13:37:45;;;;;;;6.38;4.00;;;11.70;99.90;;;;;;5094014;28;20031;-77
2022/01/28 13:40:32;;;;;;;5.20;3.45;;;11.80;99.90;;;;;;5093695;28;20055;-77
2022/01/28 13:43:10;;;;;;;5.47;3.80;;;11.80;99.90;;;;;;5093655;28;20024;-76
2022/01/28 13:45:43;;;;;;;4.97;3.25;;;11.80;99.90;;;;;;5093903;28;20505;-76
2022/01/28 13:48:15;;;;;;;5.40;3.50;;;11.80;99.90;;;;;;5093561;28;20024;-77
2022/01/28 13:50:43;;;;;;;5.07;3.25;;;11.80;99.90;;;;;;5094120;28;20059;-77
2022/01/28 13:55:54;;;;;;;4.50;3.17;;;11.70;99.90;;;;;;5093181;28;20399;-76
2022/01/28 13:58:20;;;;;;;5.60;3.55;;;11.70;99.90;;;;;;5093410;28;20020;-75
2022/01/28 14:00:49;;;;;;;7.22;3.05;;;11.70;99.90;;;;;;5093379;28;20020;-75
2022/01/28 14:03:23;;;;;;;4.53;2.88;;;11.70;99.90;;;;;;5093379;28;20078;-76
2022/01/28 14:06:00;;;;;;;5.57;2.95;;;11.70;99.90;;;;;;5093345;28;20052;-77
2022/01/28 14:08:47;;;;;;;4.32;3.15;;;11.70;99.90;;;;;;5093933;28;20020;-78
2022/01/28 14:11:36;;;;;;;4.70;3.00;;;11.70;99.90;;;;;;5091784;28;20035;-75
2022/01/28 14:14:46;;;;;;;5.50;3.38;;;11.70;99.90;;;;;;5093514;28;20506;-77
2022/01/28 14:17:11;;;;;;;5.00;3.17;;;11.80;99.90;;;;;;5031325;28;20028;-77
2022/01/28 14:19:39;;;;;;;6.05;3.65;;;11.70;99.90;;;;;;5031587;28;20085;-76
2022/01/28 14:22:08;;;;;;;4.32;2.70;;;11.70;99.90;;;;;;5063058;28;20246;-75